sensor_id;sensor_type;location;lat;lon;timestamp;pressure;altitude;pressure_sealevel;temperature;humidity
32033;BME280;31720;52.638;9.216;2023-04-07T00:00:48;101327.94;;;6.87;71.19
32033;BME280;31720;52.638;9.216;2023-04-07T00:03:49;101329.91;;;6.79;71.19
32033;BME280;31720;52.638;9.216;2023-04-07T00:06:51;101327.44;;;6.74;71.81
32033;BME280;31720;52.638;9.216;2023-04-07T00:09:53;101327.56;;;6.70;72.04
32033;BME280;31720;52.638;9.216;2023-04-07T00:12:55;101332.06;;;6.65;71.88
32033;BME280;31720;52.638;9.216;2023-04-07T00:15:56;101324.34;;;6.60;71.97
32033;BME280;31720;52.638;9.216;2023-04-07T00:18:58;101316.72;;;6.52;72.45
32033;BME280;31720;52.638;9.216;2023-04-07T00:22:00;101316.78;;;6.49;72.28
32033;BME280;31720;52.638;9.216;2023-04-07T00:25:03;101312.53;;;6.47;73.04
32033;BME280;31720;52.638;9.216;2023-04-07T00:28:04;101323.91;;;6.44;72.73
32033;BME280;31720;52.638;9.216;2023-04-07T00:31:06;101317.03;;;6.42;73.30
32033;BME280;31720;52.638;9.216;2023-04-07T00:34:07;101326.72;;;6.37;73.41
32033;BME280;31720;52.638;9.216;2023-04-07T00:37:08;101335.41;;;6.37;74.01
32033;BME280;31720;52.638;9.216;2023-04-07T00:40:11;101339.97;;;6.29;74.14
32033;BME280;31720;52.638;9.216;2023-04-07T00:43:13;101334.72;;;6.30;74.80
32033;BME280;31720;52.638;9.216;2023-04-07T00:46:14;101332.22;;;6.26;73.89
32033;BME280;31720;52.638;9.216;2023-04-07T00:49:16;101323.69;;;6.19;74.14
32033;BME280;31720;52.638;9.216;2023-04-07T00:52:18;101320.19;;;6.20;74.13
32033;BME280;31720;52.638;9.216;2023-04-07T00:55:27;101327.13;;;6.21;73.64
32033;BME280;31720;52.638;9.216;2023-04-07T00:58:29;101326.56;;;6.10;74.06
32033;BME280;31720;52.638;9.216;2023-04-07T01:01:35;101327.47;;;6.07;74.45
32033;BME280;31720;52.638;9.216;2023-04-07T01:04:43;101325.94;;;6.00;75.32
32033;BME280;31720;52.638;9.216;2023-04-07T01:07:54;101325.94;;;5.99;74.62
32033;BME280;31720;52.638;9.216;2023-04-07T01:11:05;101321.78;;;5.92;75.39
32033;BME280;31720;52.638;9.216;2023-04-07T01:14:09;101321.81;;;5.89;75.33
32033;BME280;31720;52.638;9.216;2023-04-07T01:17:12;101321.88;;;5.87;75.48
32033;BME280;31720;52.638;9.216;2023-04-07T01:20:18;101322.00;;;5.82;74.62
32033;BME280;31720;52.638;9.216;2023-04-07T01:23:30;101318.44;;;5.85;75.10
32033;BME280;31720;52.638;9.216;2023-04-07T01:26:38;101316.00;;;5.79;74.01
32033;BME280;31720;52.638;9.216;2023-04-07T01:29:44;101316.78;;;5.81;74.29
32033;BME280;31720;52.638;9.216;2023-04-07T01:32:50;101312.47;;;5.81;74.83
32033;BME280;31720;52.638;9.216;2023-04-07T01:35:54;101313.34;;;5.80;75.20
32033;BME280;31720;52.638;9.216;2023-04-07T01:38:58;101315.31;;;5.71;73.50
32033;BME280;31720;52.638;9.216;2023-04-07T01:42:00;101309.19;;;5.73;74.46
32033;BME280;31720;52.638;9.216;2023-04-07T01:45:05;101317.69;;;5.80;74.13
32033;BME280;31720;52.638;9.216;2023-04-07T01:48:07;101316.09;;;5.74;73.87
32033;BME280;31720;52.638;9.216;2023-04-07T01:51:09;101315.31;;;5.71;73.90
32033;BME280;31720;52.638;9.216;2023-04-07T01:54:17;101319.72;;;5.67;73.20
32033;BME280;31720;52.638;9.216;2023-04-07T01:57:18;101320.69;;;5.63;72.05
32033;BME280;31720;52.638;9.216;2023-04-07T02:00:21;101319.16;;;5.56;72.51
32033;BME280;31720;52.638;9.216;2023-04-07T02:03:26;101313.06;;;5.55;73.38
32033;BME280;31720;52.638;9.216;2023-04-07T02:06:34;101317.38;;;5.56;72.70
32033;BME280;31720;52.638;9.216;2023-04-07T02:09:40;101321.81;;;5.53;72.36
32033;BME280;31720;52.638;9.216;2023-04-07T02:12:45;101322.75;;;5.50;72.62
32033;BME280;31720;52.638;9.216;2023-04-07T02:15:48;101321.00;;;5.51;73.38
32033;BME280;31720;52.638;9.216;2023-04-07T02:18:50;101321.13;;;5.46;73.86
32033;BME280;31720;52.638;9.216;2023-04-07T02:21:53;101324.63;;;5.44;75.01
32033;BME280;31720;52.638;9.216;2023-04-07T02:24:54;101317.72;;;5.43;75.08
32033;BME280;31720;52.638;9.216;2023-04-07T02:27:58;101321.31;;;5.37;76.08
32033;BME280;31720;52.638;9.216;2023-04-07T02:31:01;101311.84;;;5.33;75.83
32033;BME280;31720;52.638;9.216;2023-04-07T02:34:02;101325.78;;;5.30;76.48
32033;BME280;31720;52.638;9.216;2023-04-07T02:37:03;101317.28;;;5.24;77.14
32033;BME280;31720;52.638;9.216;2023-04-07T02:40:06;101317.28;;;5.24;77.13
32033;BME280;31720;52.638;9.216;2023-04-07T02:43:07;101323.47;;;5.18;76.46
32033;BME280;31720;52.638;9.216;2023-04-07T02:46:10;101324.34;;;5.17;76.01
32033;BME280;31720;52.638;9.216;2023-04-07T02:49:11;101334.78;;;5.17;76.68
32033;BME280;31720;52.638;9.216;2023-04-07T02:52:13;101332.22;;;5.16;76.01
32033;BME280;31720;52.638;9.216;2023-04-07T02:55:14;101326.09;;;5.17;75.22
32033;BME280;31720;52.638;9.216;2023-04-07T02:58:17;101324.44;;;5.13;74.58
32033;BME280;31720;52.638;9.216;2023-04-07T03:01:20;101326.28;;;5.07;74.78
32033;BME280;31720;52.638;9.216;2023-04-07T03:04:21;101322.91;;;5.04;75.54
32033;BME280;31720;52.638;9.216;2023-04-07T03:07:23;101330.72;;;5.04;75.79
32033;BME280;31720;52.638;9.216;2023-04-07T03:10:24;101322.88;;;5.05;75.29
32033;BME280;31720;52.638;9.216;2023-04-07T03:13:26;101322.03;;;5.03;73.30
32033;BME280;31720;52.638;9.216;2023-04-07T03:16:31;101321.28;;;4.98;73.83
32033;BME280;31720;52.638;9.216;2023-04-07T03:19:32;101330.84;;;4.98;74.14
32033;BME280;31720;52.638;9.216;2023-04-07T03:22:34;101322.28;;;4.93;74.23
32033;BME280;31720;52.638;9.216;2023-04-07T03:25:35;101318.72;;;4.97;74.05
32033;BME280;31720;52.638;9.216;2023-04-07T03:28:36;101323.97;;;4.94;73.79
32033;BME280;31720;52.638;9.216;2023-04-07T03:31:39;101325.97;;;4.82;74.62
32033;BME280;31720;52.638;9.216;2023-04-07T03:34:41;101321.56;;;4.84;74.93
32033;BME280;31720;52.638;9.216;2023-04-07T03:37:42;101316.25;;;4.91;75.00
32033;BME280;31720;52.638;9.216;2023-04-07T03:40:43;101319.19;;;4.74;73.25
32033;BME280;31720;52.638;9.216;2023-04-07T03:43:45;101321.75;;;4.75;73.84
32033;BME280;31720;52.638;9.216;2023-04-07T03:46:47;101326.88;;;4.80;73.69
32033;BME280;31720;52.638;9.216;2023-04-07T03:49:49;101319.25;;;4.71;73.40
32033;BME280;31720;52.638;9.216;2023-04-07T03:52:51;101329.84;;;4.62;74.55
32033;BME280;31720;52.638;9.216;2023-04-07T03:55:52;101341.00;;;4.67;75.38
32033;BME280;31720;52.638;9.216;2023-04-07T03:58:54;101341.78;;;4.72;75.02
32033;BME280;31720;52.638;9.216;2023-04-07T04:01:57;101337.47;;;4.71;75.12
32033;BME280;31720;52.638;9.216;2023-04-07T04:04:58;101341.78;;;4.72;75.14
32033;BME280;31720;52.638;9.216;2023-04-07T04:07:59;101335.13;;;4.57;75.67
32033;BME280;31720;52.638;9.216;2023-04-07T04:11:01;101337.88;;;4.51;74.18
32033;BME280;31720;52.638;9.216;2023-04-07T04:14:02;101344.66;;;4.58;74.85
32033;BME280;31720;52.638;9.216;2023-04-07T04:17:05;101356.94;;;4.51;75.37
32033;BME280;31720;52.638;9.216;2023-04-07T04:20:07;101357.09;;;4.42;74.94
32033;BME280;31720;52.638;9.216;2023-04-07T04:23:09;101352.19;;;4.25;76.08
32033;BME280;31720;52.638;9.216;2023-04-07T04:26:10;101359.97;;;4.27;75.84
32033;BME280;31720;52.638;9.216;2023-04-07T04:29:11;101355.88;;;4.14;76.46
32033;BME280;31720;52.638;9.216;2023-04-07T04:32:14;101355.72;;;4.23;77.15
32033;BME280;31720;52.638;9.216;2023-04-07T04:35:17;101353.13;;;4.23;76.21
32033;BME280;31720;52.638;9.216;2023-04-07T04:38:18;101358.28;;;4.24;76.08
32033;BME280;31720;52.638;9.216;2023-04-07T04:41:20;101367.88;;;4.21;76.28
32033;BME280;31720;52.638;9.216;2023-04-07T04:44:21;101367.84;;;4.22;76.81
32033;BME280;31720;52.638;9.216;2023-04-07T04:47:24;101372.19;;;4.22;76.61
32033;BME280;31720;52.638;9.216;2023-04-07T04:50:26;101376.53;;;4.23;76.69
32033;BME280;31720;52.638;9.216;2023-04-07T04:53:27;101379.22;;;4.18;76.67
32033;BME280;31720;52.638;9.216;2023-04-07T04:56:29;101388.69;;;4.21;77.04
32033;BME280;31720;52.638;9.216;2023-04-07T04:59:30;101387.91;;;4.16;77.53
32033;BME280;31720;52.638;9.216;2023-04-07T05:02:33;101395.13;;;4.00;77.66
32033;BME280;31720;52.638;9.216;2023-04-07T05:05:34;101389.03;;;3.99;77.91
32033;BME280;31720;52.638;9.216;2023-04-07T05:08:35;101388.03;;;4.08;78.25
32033;BME280;31720;52.638;9.216;2023-04-07T05:11:37;101397.63;;;4.06;78.20
32033;BME280;31720;52.638;9.216;2023-04-07T05:14:38;101400.09;;;4.12;78.21
32033;BME280;31720;52.638;9.216;2023-04-07T05:17:41;101395.97;;;3.99;78.43
32033;BME280;31720;52.638;9.216;2023-04-07T05:20:43;101398.63;;;3.97;78.10
32033;BME280;31720;52.638;9.216;2023-04-07T05:23:44;101397.75;;;3.97;79.44
32033;BME280;31720;52.638;9.216;2023-04-07T05:26:45;101400.31;;;3.98;79.09
32033;BME280;31720;52.638;9.216;2023-04-07T05:29:47;101405.50;;;4.01;79.45
32033;BME280;31720;52.638;9.216;2023-04-07T05:32:51;101404.47;;;4.10;79.40
32033;BME280;31720;52.638;9.216;2023-04-07T05:35:52;101412.22;;;4.13;77.72
32033;BME280;31720;52.638;9.216;2023-04-07T05:38:53;101407.97;;;4.09;78.80
32033;BME280;31720;52.638;9.216;2023-04-07T05:41:55;101413.06;;;4.15;78.31
32033;BME280;31720;52.638;9.216;2023-04-07T05:44:57;101409.72;;;4.07;78.75
32033;BME280;31720;52.638;9.216;2023-04-07T05:47:59;101413.09;;;4.12;78.34
32033;BME280;31720;52.638;9.216;2023-04-07T05:51:01;101419.13;;;4.16;77.54
32033;BME280;31720;52.638;9.216;2023-04-07T05:54:02;101419.97;;;4.16;76.97
32033;BME280;31720;52.638;9.216;2023-04-07T05:57:04;101419.88;;;4.22;76.64
32033;BME280;31720;52.638;9.216;2023-04-07T06:00:07;101421.53;;;4.26;77.31
32033;BME280;31720;52.638;9.216;2023-04-07T06:03:11;101430.16;;;4.30;77.01
32033;BME280;31720;52.638;9.216;2023-04-07T06:06:13;101427.44;;;4.38;75.85
32033;BME280;31720;52.638;9.216;2023-04-07T06:09:15;101421.31;;;4.40;76.69
32033;BME280;31720;52.638;9.216;2023-04-07T06:12:16;101429.06;;;4.43;76.86
32033;BME280;31720;52.638;9.216;2023-04-07T06:15:18;101435.06;;;4.50;74.05
32033;BME280;31720;52.638;9.216;2023-04-07T06:18:20;101437.72;;;4.45;75.69
32033;BME280;31720;52.638;9.216;2023-04-07T06:21:22;101440.16;;;4.56;75.09
32033;BME280;31720;52.638;9.216;2023-04-07T06:24:24;101434.84;;;4.61;74.20
32033;BME280;31720;52.638;9.216;2023-04-07T06:27:26;101443.44;;;4.66;74.24
32033;BME280;31720;52.638;9.216;2023-04-07T06:30:27;101442.53;;;4.68;75.19
32033;BME280;31720;52.638;9.216;2023-04-07T06:33:30;101451.13;;;4.72;74.22
32033;BME280;31720;52.638;9.216;2023-04-07T06:36:32;101452.09;;;4.66;73.44
32033;BME280;31720;52.638;9.216;2023-04-07T06:39:34;101456.31;;;4.73;73.25
32033;BME280;31720;52.638;9.216;2023-04-07T06:42:35;101443.97;;;4.84;73.92
32033;BME280;31720;52.638;9.216;2023-04-07T06:45:37;101458.53;;;4.95;73.14
32033;BME280;31720;52.638;9.216;2023-04-07T06:48:39;101449.72;;;5.02;73.22
32033;BME280;31720;52.638;9.216;2023-04-07T06:51:41;101453.13;;;5.05;71.86
32033;BME280;31720;52.638;9.216;2023-04-07T06:54:42;101457.13;;;5.22;72.43
32033;BME280;31720;52.638;9.216;2023-04-07T06:57:44;101467.72;;;5.14;71.63
32033;BME280;31720;52.638;9.216;2023-04-07T07:00:45;101465.47;;;5.39;72.16
32033;BME280;31720;52.638;9.216;2023-04-07T07:03:48;101468.00;;;5.44;70.39
32033;BME280;31720;52.638;9.216;2023-04-07T07:06:49;101472.13;;;5.54;70.08
32033;BME280;31720;52.638;9.216;2023-04-07T07:09:52;101460.78;;;5.56;69.60
32033;BME280;31720;52.638;9.216;2023-04-07T07:12:54;101466.56;;;5.71;70.37
32033;BME280;31720;52.638;9.216;2023-04-07T07:15:55;101477.88;;;5.70;70.07
32033;BME280;31720;52.638;9.216;2023-04-07T07:18:58;101477.84;;;5.71;68.69
32033;BME280;31720;52.638;9.216;2023-04-07T07:22:00;101482.00;;;5.81;70.43
32033;BME280;31720;52.638;9.216;2023-04-07T07:25:04;101476.88;;;5.75;70.80
32033;BME280;31720;52.638;9.216;2023-04-07T07:28:05;101482.03;;;5.78;70.03
32033;BME280;31720;52.638;9.216;2023-04-07T07:31:09;101481.91;;;5.84;69.99
32033;BME280;31720;52.638;9.216;2023-04-07T07:34:13;101484.59;;;5.81;68.81
32033;BME280;31720;52.638;9.216;2023-04-07T07:37:14;101493.94;;;5.90;69.55
32033;BME280;31720;52.638;9.216;2023-04-07T07:40:16;101497.31;;;5.97;69.60
32033;BME280;31720;52.638;9.216;2023-04-07T07:43:18;101495.66;;;5.93;69.17
32033;BME280;31720;52.638;9.216;2023-04-07T07:46:20;101503.50;;;5.91;68.36
32033;BME280;31720;52.638;9.216;2023-04-07T07:49:24;101504.16;;;6.02;69.80
32033;BME280;31720;52.638;9.216;2023-04-07T07:52:26;101503.94;;;6.12;69.50
32033;BME280;31720;52.638;9.216;2023-04-07T07:55:27;101506.28;;;6.24;67.84
32033;BME280;31720;52.638;9.216;2023-04-07T07:58:29;101510.31;;;6.37;68.49
32033;BME280;31720;52.638;9.216;2023-04-07T08:01:30;101511.19;;;6.38;66.38
32033;BME280;31720;52.638;9.216;2023-04-07T08:04:33;101509.25;;;6.46;65.95
32033;BME280;31720;52.638;9.216;2023-04-07T08:07:35;101520.28;;;6.57;66.42
32033;BME280;31720;52.638;9.216;2023-04-07T08:10:36;101524.53;;;6.61;65.83
32033;BME280;31720;52.638;9.216;2023-04-07T08:13:38;101524.88;;;6.83;65.78
32033;BME280;31720;52.638;9.216;2023-04-07T08:16:39;101525.19;;;7.05;66.78
32033;BME280;31720;52.638;9.216;2023-04-07T08:19:42;101525.78;;;7.15;65.18
32033;BME280;31720;52.638;9.216;2023-04-07T08:22:43;101523.72;;;7.27;64.30
32033;BME280;31720;52.638;9.216;2023-04-07T08:25:45;101516.72;;;7.28;63.97
32033;BME280;31720;52.638;9.216;2023-04-07T08:28:47;101526.06;;;7.36;63.65
32033;BME280;31720;52.638;9.216;2023-04-07T08:31:50;101523.81;;;7.54;61.85
32033;BME280;31720;52.638;9.216;2023-04-07T08:34:55;101524.66;;;7.56;61.20
32033;BME280;31720;52.638;9.216;2023-04-07T08:37:57;101525.81;;;7.75;61.01
32033;BME280;31720;52.638;9.216;2023-04-07T08:41:03;101534.81;;;7.96;57.67
32033;BME280;31720;52.638;9.216;2023-04-07T08:44:06;101529.22;;;8.08;57.77
32033;BME280;31720;52.638;9.216;2023-04-07T08:47:08;101529.09;;;8.11;58.48
32033;BME280;31720;52.638;9.216;2023-04-07T08:50:16;101527.81;;;8.25;58.19
32033;BME280;31720;52.638;9.216;2023-04-07T08:53:22;101534.59;;;8.32;59.74
32033;BME280;31720;52.638;9.216;2023-04-07T08:56:24;101534.38;;;8.39;59.00
32033;BME280;31720;52.638;9.216;2023-04-07T08:59:26;101533.50;;;8.39;55.92
32033;BME280;31720;52.638;9.216;2023-04-07T09:02:28;101535.91;;;8.47;56.48
32033;BME280;31720;52.638;9.216;2023-04-07T09:05:33;101538.84;;;8.64;54.89
32033;BME280;31720;52.638;9.216;2023-04-07T09:08:35;101535.84;;;8.75;55.57
32033;BME280;31720;52.638;9.216;2023-04-07T09:11:37;101537.94;;;8.92;56.17
32033;BME280;31720;52.638;9.216;2023-04-07T09:14:39;101538.31;;;9.06;54.42
32033;BME280;31720;52.638;9.216;2023-04-07T09:17:41;101535.25;;;8.93;53.40
32033;BME280;31720;52.638;9.216;2023-04-07T09:20:57;101550.88;;;8.96;54.72
32033;BME280;31720;52.638;9.216;2023-04-07T09:23:59;101543.47;;;9.09;52.13
32033;BME280;31720;52.638;9.216;2023-04-07T09:27:10;101547.47;;;9.19;51.85
32033;BME280;31720;52.638;9.216;2023-04-07T09:30:13;101545.75;;;9.18;52.78
32033;BME280;31720;52.638;9.216;2023-04-07T09:33:15;101544.84;;;9.19;52.31
32033;BME280;31720;52.638;9.216;2023-04-07T09:36:18;101545.81;;;9.42;51.86
32033;BME280;31720;52.638;9.216;2023-04-07T09:39:19;101549.97;;;9.47;53.38
32033;BME280;31720;52.638;9.216;2023-04-07T09:42:21;101546.16;;;9.56;52.14
32033;BME280;31720;52.638;9.216;2023-04-07T09:45:26;101540.66;;;9.63;52.06
32033;BME280;31720;52.638;9.216;2023-04-07T09:48:27;101536.00;;;9.70;51.98
32033;BME280;31720;52.638;9.216;2023-04-07T09:51:32;101540.63;;;9.87;49.57
32033;BME280;31720;52.638;9.216;2023-04-07T09:54:35;101537.84;;;9.91;50.22
32033;BME280;31720;52.638;9.216;2023-04-07T09:57:38;101538.81;;;9.89;51.21
32033;BME280;31720;52.638;9.216;2023-04-07T10:00:40;101532.34;;;9.98;50.58
32033;BME280;31720;52.638;9.216;2023-04-07T10:03:42;101530.88;;;10.12;49.69
32033;BME280;31720;52.638;9.216;2023-04-07T10:06:46;101537.69;;;10.18;49.74
32033;BME280;31720;52.638;9.216;2023-04-07T10:09:48;101530.91;;;10.36;48.10
32033;BME280;31720;52.638;9.216;2023-04-07T10:12:51;101538.72;;;10.37;48.98
32033;BME280;31720;52.638;9.216;2023-04-07T10:15:54;101544.34;;;10.50;48.33
32033;BME280;31720;52.638;9.216;2023-04-07T10:18:55;101537.19;;;10.54;48.52
32033;BME280;31720;52.638;9.216;2023-04-07T10:22:00;101542.66;;;10.70;48.83
32033;BME280;31720;52.638;9.216;2023-04-07T10:25:05;101552.25;;;10.71;48.56
32033;BME280;31720;52.638;9.216;2023-04-07T10:28:10;101548.59;;;10.75;48.49
32033;BME280;31720;52.638;9.216;2023-04-07T10:31:13;101545.94;;;10.97;48.79
32033;BME280;31720;52.638;9.216;2023-04-07T10:34:15;101553.03;;;10.95;49.11
32033;BME280;31720;52.638;9.216;2023-04-07T10:37:19;101548.28;;;11.03;49.16
32033;BME280;31720;52.638;9.216;2023-04-07T10:40:28;101548.63;;;10.95;47.35
32033;BME280;31720;52.638;9.216;2023-04-07T10:43:36;101548.91;;;11.09;48.84
32033;BME280;31720;52.638;9.216;2023-04-07T10:47:12;101549.69;;;11.11;47.37
32033;BME280;31720;52.638;9.216;2023-04-07T10:50:18;101547.97;;;11.10;48.32
32033;BME280;31720;52.638;9.216;2023-04-07T10:53:21;101541.66;;;11.14;46.89
32033;BME280;31720;52.638;9.216;2023-04-07T10:56:23;101553.22;;;11.31;48.69
32033;BME280;31720;52.638;9.216;2023-04-07T10:59:25;101545.53;;;11.47;48.65
32033;BME280;31720;52.638;9.216;2023-04-07T11:02:33;101560.06;;;11.55;47.13
32033;BME280;31720;52.638;9.216;2023-04-07T11:05:35;101553.38;;;11.67;45.69
32033;BME280;31720;52.638;9.216;2023-04-07T11:08:40;101550.81;;;11.86;46.25
32033;BME280;31720;52.638;9.216;2023-04-07T11:11:41;101552.59;;;12.04;46.55
32033;BME280;31720;52.638;9.216;2023-04-07T11:14:44;101543.63;;;12.08;47.43
32033;BME280;31720;52.638;9.216;2023-04-07T11:17:45;101547.59;;;12.17;45.91
32033;BME280;31720;52.638;9.216;2023-04-07T11:20:49;101542.53;;;12.12;42.93
32033;BME280;31720;52.638;9.216;2023-04-07T11:23:53;101549.94;;;12.23;44.83
32033;BME280;31720;52.638;9.216;2023-04-07T11:26:54;101545.84;;;12.35;46.48
32033;BME280;31720;52.638;9.216;2023-04-07T11:29:55;101544.97;;;12.53;45.16
32033;BME280;31720;52.638;9.216;2023-04-07T11:32:57;101548.34;;;12.74;46.42
32033;BME280;31720;52.638;9.216;2023-04-07T11:36:00;101553.25;;;12.82;45.50
32033;BME280;31720;52.638;9.216;2023-04-07T11:39:03;101554.25;;;12.97;44.20
32033;BME280;31720;52.638;9.216;2023-04-07T11:42:05;101548.66;;;13.03;44.04
32033;BME280;31720;52.638;9.216;2023-04-07T11:45:15;101543.63;;;13.15;45.29
32033;BME280;31720;52.638;9.216;2023-04-07T11:48:28;101553.72;;;13.42;43.12
32033;BME280;31720;52.638;9.216;2023-04-07T11:51:30;101549.75;;;13.51;43.73
32033;BME280;31720;52.638;9.216;2023-04-07T11:54:40;101542.88;;;13.64;41.28
32033;BME280;31720;52.638;9.216;2023-04-07T11:57:41;101556.53;;;13.72;40.61
32033;BME280;31720;52.638;9.216;2023-04-07T12:00:52;101542.59;;;13.86;41.28
32033;BME280;31720;52.638;9.216;2023-04-07T12:03:56;101543.44;;;14.02;41.20
32033;BME280;31720;52.638;9.216;2023-04-07T12:07:06;101551.03;;;14.08;40.69
32033;BME280;31720;52.638;9.216;2023-04-07T12:10:19;101550.78;;;14.29;40.70
32033;BME280;31720;52.638;9.216;2023-04-07T12:13:20;101546.00;;;14.35;39.90
32033;BME280;31720;52.638;9.216;2023-04-07T12:16:22;101561.53;;;14.41;39.69
32033;BME280;31720;52.638;9.216;2023-04-07T12:19:24;101556.44;;;14.54;40.69
32033;BME280;31720;52.638;9.216;2023-04-07T12:22:26;101556.66;;;14.65;37.37
32033;BME280;31720;52.638;9.216;2023-04-07T12:25:29;101550.09;;;14.73;37.91
32033;BME280;31720;52.638;9.216;2023-04-07T12:28:30;101548.97;;;14.77;37.77
32033;BME280;31720;52.638;9.216;2023-04-07T12:31:32;101553.38;;;15.06;38.80
32033;BME280;31720;52.638;9.216;2023-04-07T12:34:33;101552.56;;;15.20;38.96
32033;BME280;31720;52.638;9.216;2023-04-07T12:37:36;101550.50;;;15.25;37.95
32033;BME280;31720;52.638;9.216;2023-04-07T12:40:39;101555.63;;;15.42;38.37
32033;BME280;31720;52.638;9.216;2023-04-07T12:43:41;101551.69;;;15.50;38.28
32033;BME280;31720;52.638;9.216;2023-04-07T12:46:42;101560.09;;;15.56;39.13
32033;BME280;31720;52.638;9.216;2023-04-07T12:49:43;101556.75;;;15.53;37.44
32033;BME280;31720;52.638;9.216;2023-04-07T12:52:45;101554.50;;;15.61;38.29
32033;BME280;31720;52.638;9.216;2023-04-07T12:55:48;101552.44;;;15.66;37.99
32033;BME280;31720;52.638;9.216;2023-04-07T12:58:50;101552.25;;;15.83;38.87
32033;BME280;31720;52.638;9.216;2023-04-07T13:01:52;101563.44;;;15.74;37.67
32033;BME280;31720;52.638;9.216;2023-04-07T13:04:54;101561.16;;;15.96;37.16
32033;BME280;31720;52.638;9.216;2023-04-07T13:07:55;101569.22;;;15.81;37.50
32033;BME280;31720;52.638;9.216;2023-04-07T13:10:58;101562.00;;;15.97;39.43
32033;BME280;31720;52.638;9.216;2023-04-07T13:13:59;101550.66;;;15.95;34.49
32033;BME280;31720;52.638;9.216;2023-04-07T13:17:01;101540.19;;;16.06;37.13
32033;BME280;31720;52.638;9.216;2023-04-07T13:20:02;101559.03;;;16.16;37.48
32033;BME280;31720;52.638;9.216;2023-04-07T13:23:05;101556.63;;;16.26;36.61
32033;BME280;31720;52.638;9.216;2023-04-07T13:26:08;101553.78;;;16.29;34.69
32033;BME280;31720;52.638;9.216;2023-04-07T13:29:09;101548.16;;;16.47;36.30
32033;BME280;31720;52.638;9.216;2023-04-07T13:32:11;101539.53;;;16.44;35.27
32033;BME280;31720;52.638;9.216;2023-04-07T13:35:14;101549.59;;;16.66;34.07
32033;BME280;31720;52.638;9.216;2023-04-07T13:38:16;101541.88;;;16.48;36.05
32033;BME280;31720;52.638;9.216;2023-04-07T13:41:19;101546.50;;;16.59;37.08
32033;BME280;31720;52.638;9.216;2023-04-07T13:44:20;101541.53;;;16.67;35.83
32033;BME280;31720;52.638;9.216;2023-04-07T13:47:22;101547.44;;;16.72;37.10
32033;BME280;31720;52.638;9.216;2023-04-07T13:50:24;101540.53;;;16.83;34.04
32033;BME280;31720;52.638;9.216;2023-04-07T13:53:26;101550.75;;;16.62;37.03
32033;BME280;31720;52.638;9.216;2023-04-07T13:56:28;101545.72;;;16.57;39.22
32033;BME280;31720;52.638;9.216;2023-04-07T13:59:30;101540.84;;;16.78;36.89
32033;BME280;31720;52.638;9.216;2023-04-07T14:02:31;101549.34;;;16.83;35.72
32033;BME280;31720;52.638;9.216;2023-04-07T14:05:33;101548.53;;;16.95;34.95
32033;BME280;31720;52.638;9.216;2023-04-07T14:08:34;101547.00;;;16.79;35.41
32033;BME280;31720;52.638;9.216;2023-04-07T14:11:37;101549.13;;;16.73;33.71
32033;BME280;31720;52.638;9.216;2023-04-07T14:14:39;101546.91;;;16.80;35.44
32033;BME280;31720;52.638;9.216;2023-04-07T14:17:40;101544.84;;;17.11;34.29
32033;BME280;31720;52.638;9.216;2023-04-07T14:20:42;101547.44;;;16.72;34.78
32033;BME280;31720;52.638;9.216;2023-04-07T14:23:43;101545.84;;;16.56;33.01
32033;BME280;31720;52.638;9.216;2023-04-07T14:26:46;101544.50;;;16.63;34.54
32033;BME280;31720;52.638;9.216;2023-04-07T14:29:50;101541.56;;;16.53;34.51
32033;BME280;31720;52.638;9.216;2023-04-07T14:32:52;101540.59;;;16.68;35.58
32033;BME280;31720;52.638;9.216;2023-04-07T14:35:53;101549.34;;;16.56;34.61
32033;BME280;31720;52.638;9.216;2023-04-07T14:38:55;101547.78;;;16.81;31.83
32033;BME280;31720;52.638;9.216;2023-04-07T14:41:57;101545.66;;;16.59;32.16
32033;BME280;31720;52.638;9.216;2023-04-07T14:44:59;101549.59;;;16.66;34.71
32033;BME280;31720;52.638;9.216;2023-04-07T14:48:04;101539.19;;;16.63;34.91
32033;BME280;31720;52.638;9.216;2023-04-07T14:51:09;101548.94;;;16.77;32.67
32033;BME280;31720;52.638;9.216;2023-04-07T14:54:12;101536.50;;;16.50;34.56
32033;BME280;31720;52.638;9.216;2023-04-07T14:57:14;101542.88;;;16.60;32.86
32033;BME280;31720;52.638;9.216;2023-04-07T15:00:16;101545.19;;;16.52;33.66
32033;BME280;31720;52.638;9.216;2023-04-07T15:03:18;101546.81;;;16.55;35.20
32033;BME280;31720;52.638;9.216;2023-04-07T15:06:19;101545.19;;;16.79;33.98
32033;BME280;31720;52.638;9.216;2023-04-07T15:09:20;101552.34;;;16.91;34.10
32033;BME280;31720;52.638;9.216;2023-04-07T15:12:23;101558.06;;;16.58;33.84
32033;BME280;31720;52.638;9.216;2023-04-07T15:15:25;101557.66;;;16.64;32.64
32033;BME280;31720;52.638;9.216;2023-04-07T15:18:26;101551.06;;;16.84;33.15
32033;BME280;31720;52.638;9.216;2023-04-07T15:21:28;101559.59;;;17.02;32.78
32033;BME280;31720;52.638;9.216;2023-04-07T15:24:30;101556.72;;;16.92;32.03
32033;BME280;31720;52.638;9.216;2023-04-07T15:27:32;101554.56;;;16.85;31.22
32033;BME280;31720;52.638;9.216;2023-04-07T15:30:34;101559.56;;;16.62;31.64
32033;BME280;31720;52.638;9.216;2023-04-07T15:33:35;101561.16;;;16.65;32.92
32033;BME280;31720;52.638;9.216;2023-04-07T15:36:37;101561.94;;;16.67;32.75
32033;BME280;31720;52.638;9.216;2023-04-07T15:39:38;101552.19;;;16.53;33.32
32033;BME280;31720;52.638;9.216;2023-04-07T15:42:41;101556.75;;;16.51;33.73
32033;BME280;31720;52.638;9.216;2023-04-07T15:45:43;101557.97;;;16.60;31.82
32033;BME280;31720;52.638;9.216;2023-04-07T15:48:44;101569.13;;;16.38;31.77
32033;BME280;31720;52.638;9.216;2023-04-07T15:51:46;101557.66;;;16.37;32.45
32033;BME280;31720;52.638;9.216;2023-04-07T15:54:49;101557.50;;;16.53;33.26
32033;BME280;31720;52.638;9.216;2023-04-07T15:57:52;101560.75;;;16.17;32.09
32033;BME280;31720;52.638;9.216;2023-04-07T16:00:53;101569.97;;;16.38;31.96
32033;BME280;31720;52.638;9.216;2023-04-07T16:03:54;101567.50;;;16.08;30.38